createdAt,value
2023-02-24T00:02:05.962Z,61.95
2023-02-24T00:04:40.123Z,62.04
2023-02-24T00:07:10.539Z,62.09
2023-02-24T00:09:38.221Z,61.73
2023-02-24T00:12:10.620Z,62.20
2023-02-24T00:14:41.007Z,62.20
2023-02-24T00:17:08.704Z,62.45
2023-02-24T00:19:36.962Z,62.71
2023-02-24T00:22:06.268Z,62.39
2023-02-24T00:24:33.371Z,62.34
2023-02-24T00:27:03.317Z,62.56
2023-02-24T00:29:30.648Z,62.74
2023-02-24T00:32:02.413Z,62.55
2023-02-24T00:34:31.548Z,62.55
2023-02-24T00:36:58.539Z,62.61
2023-02-24T00:39:34.019Z,62.58
2023-02-24T00:42:06.504Z,62.63
2023-02-24T00:44:42.042Z,62.96
2023-02-24T00:47:10.622Z,62.67
2023-02-24T00:49:43.121Z,62.41
2023-02-24T00:52:15.581Z,62.72
2023-02-24T00:54:43.865Z,62.66
2023-02-24T00:57:11.647Z,62.69
2023-02-24T00:59:39.112Z,62.87
2023-02-24T01:02:09.083Z,62.59
2023-02-24T01:04:37.738Z,62.72
2023-02-24T01:07:10.980Z,62.73
2023-02-24T01:09:39.508Z,62.71
2023-02-24T01:12:22.604Z,62.72
2023-02-24T01:14:52.639Z,62.90
2023-02-24T01:17:20.806Z,62.69
2023-02-24T01:19:49.894Z,62.89
2023-02-24T01:22:19.590Z,62.87
2023-02-24T01:24:47.008Z,62.77
2023-02-24T01:27:19.217Z,62.98
2023-02-24T01:29:47.193Z,62.96
2023-02-24T01:32:19.477Z,62.82
2023-02-24T01:34:47.872Z,62.87
2023-02-24T01:37:17.205Z,63.35
2023-02-24T01:39:46.316Z,62.93
2023-02-24T01:42:20.024Z,63.13
2023-02-24T01:44:46.871Z,63.07
2023-02-24T01:47:16.282Z,63.14
2023-02-24T01:49:47.643Z,63.17
2023-02-24T01:52:20.254Z,62.87
2023-02-24T01:54:55.271Z,63.05
2023-02-24T01:57:26.059Z,63.02
2023-02-24T01:59:58.261Z,62.96
2023-02-24T02:02:25.378Z,63.07
2023-02-24T02:04:59.857Z,62.99
2023-02-24T02:07:29.613Z,62.77
2023-02-24T02:10:00.808Z,62.89
2023-02-24T02:12:28.543Z,62.75
2023-02-24T02:14:59.463Z,63.07
2023-02-24T02:18:07.713Z,62.97
2023-02-24T02:20:42.395Z,63.01
2023-02-24T02:23:28.918Z,62.89
2023-02-24T02:26:18.968Z,62.82
2023-02-24T02:29:03.970Z,62.75
2023-02-24T02:31:42.513Z,62.90
2023-02-24T02:34:27.740Z,62.86
2023-02-24T02:37:29.633Z,62.93
2023-02-24T02:40:23.697Z,62.66
2023-02-24T02:43:18.674Z,62.81
2023-02-24T02:45:56.167Z,62.75
2023-02-24T02:48:34.575Z,62.70
2023-02-24T02:51:11.565Z,62.75
2023-02-24T02:54:10.498Z,62.80
2023-02-24T02:57:17.873Z,62.83
2023-02-24T02:59:54.458Z,63.17
2023-02-24T03:02:29.744Z,62.99
2023-02-24T03:05:00.775Z,63.00
2023-02-24T03:07:35.003Z,63.01
2023-02-24T03:10:09.736Z,62.86
2023-02-24T03:12:40.560Z,62.85
2023-02-24T03:15:11.057Z,62.84
2023-02-24T03:17:43.593Z,62.80
2023-02-24T03:20:24.350Z,62.94
2023-02-24T03:23:01.286Z,62.75
2023-02-24T03:25:44.618Z,63.03
2023-02-24T03:28:18.899Z,63.02
2023-02-24T03:30:58.044Z,62.97
2023-02-24T03:33:32.274Z,62.97
2023-02-24T03:36:01.802Z,63.06
2023-02-24T03:38:31.506Z,62.90
2023-02-24T03:40:59.249Z,63.01
2023-02-24T03:43:33.339Z,63.06
2023-02-24T03:46:01.526Z,62.99
2023-02-24T03:48:29.085Z,62.98
2023-02-24T03:50:56.229Z,62.81
2023-02-24T03:53:41.862Z,62.71
2023-02-24T03:56:27.534Z,62.82
2023-02-24T03:59:23.787Z,62.71
2023-02-24T04:02:04.137Z,62.80
2023-02-24T04:04:30.814Z,62.63
2023-02-24T04:07:23.315Z,62.92
2023-02-24T04:09:59.319Z,62.74
2023-02-24T04:12:35.432Z,63.09
2023-02-24T04:15:38.747Z,63.11
2023-02-24T04:18:20.707Z,62.97
2023-02-24T04:20:53.275Z,63.16
2023-02-24T04:23:29.048Z,63.06
2023-02-24T04:25:56.441Z,63.07
2023-02-24T04:28:25.504Z,63.09
2023-02-24T04:30:57.992Z,63.32
2023-02-24T04:33:25.711Z,63.13
2023-02-24T04:35:53.467Z,63.16
2023-02-24T04:38:20.784Z,63.21
2023-02-24T04:40:49.852Z,63.01
2023-02-24T04:43:17.526Z,63.11
2023-02-24T04:45:44.835Z,62.99
2023-02-24T04:48:14.400Z,63.00
2023-02-24T04:50:43.889Z,63.07
2023-02-24T04:53:12.832Z,63.14
2023-02-24T04:55:48.644Z,62.97
2023-02-24T04:58:19.686Z,63.14
2023-02-24T05:00:55.193Z,63.00
2023-02-24T05:03:28.995Z,63.09
2023-02-24T05:06:02.721Z,63.22
2023-02-24T05:08:31.125Z,62.76
2023-02-24T05:10:58.825Z,62.84
2023-02-24T05:13:28.489Z,63.00
2023-02-24T05:15:58.276Z,62.80
2023-02-24T05:18:30.223Z,62.73
2023-02-24T05:21:15.902Z,62.95
2023-02-24T05:23:46.981Z,63.10
2023-02-24T05:26:17.335Z,63.11
2023-02-24T05:28:49.428Z,63.07
2023-02-24T05:31:28.603Z,62.86
2023-02-24T05:33:58.453Z,62.80
2023-02-24T05:36:28.040Z,62.88
2023-02-24T05:38:58.148Z,62.58
2023-02-24T05:41:32.635Z,62.58
2023-02-24T05:44:02.576Z,62.77
2023-02-24T05:46:32.911Z,62.61
2023-02-24T05:49:02.594Z,62.52
2023-02-24T05:51:36.652Z,62.42
2023-02-24T05:54:05.311Z,62.62
2023-02-24T05:56:33.957Z,62.38
2023-02-24T05:59:02.593Z,62.24
2023-02-24T06:01:31.763Z,62.18
2023-02-24T06:04:06.129Z,62.63
2023-02-24T06:06:35.263Z,62.55
2023-02-24T06:09:13.477Z,62.72
2023-02-24T06:11:42.297Z,62.50
2023-02-24T06:14:10.421Z,62.48
2023-02-24T06:16:40.086Z,62.59
2023-02-24T06:19:10.236Z,62.75
2023-02-24T06:21:41.592Z,62.20
2023-02-24T06:24:15.525Z,62.24
2023-02-24T06:26:45.908Z,62.10
2023-02-24T06:29:14.924Z,62.00
2023-02-24T06:31:43.198Z,62.01
2023-02-24T06:34:18.599Z,61.82
2023-02-24T06:36:47.035Z,61.85
2023-02-24T06:39:14.614Z,61.72
2023-02-24T06:41:42.783Z,61.44
2023-02-24T06:44:09.897Z,61.50
2023-02-24T06:46:37.309Z,61.38
2023-02-24T06:49:04.251Z,61.02
2023-02-24T06:51:31.349Z,60.96
2023-02-24T06:53:59.592Z,61.15
2023-02-24T06:56:28.109Z,61.01
2023-02-24T06:58:57.034Z,60.91
2023-02-24T07:01:26.939Z,61.11
2023-02-24T07:04:17.867Z,60.88
2023-02-24T07:06:52.230Z,60.78
2023-02-24T07:09:20.864Z,60.75
2023-02-24T07:11:52.538Z,60.36
2023-02-24T07:14:22.331Z,60.56
2023-02-24T07:16:54.296Z,60.42
2023-02-24T07:19:25.933Z,60.14
2023-02-24T07:22:00.437Z,60.00
2023-02-24T07:24:39.462Z,60.05
2023-02-24T07:27:12.997Z,60.03
2023-02-24T07:29:40.045Z,59.94
2023-02-24T07:32:09.473Z,59.98
2023-02-24T07:34:40.107Z,59.80
2023-02-24T07:37:08.872Z,59.60
2023-02-24T07:39:37.754Z,59.45
2023-02-24T07:42:05.827Z,59.47
2023-02-24T07:44:33.227Z,59.29
2023-02-24T07:47:00.576Z,59.14
2023-02-24T07:49:30.645Z,59.12
2023-02-24T07:51:58.220Z,58.91
2023-02-24T07:54:31.441Z,58.85
2023-02-24T07:57:01.952Z,58.79
2023-02-24T07:59:32.580Z,58.60
2023-02-24T08:02:00.635Z,58.34
2023-02-24T08:04:30.308Z,58.31
2023-02-24T08:06:59.406Z,58.08
2023-02-24T08:09:46.655Z,58.00
2023-02-24T08:12:22.093Z,57.92
2023-02-24T08:14:51.848Z,57.86
2023-02-24T08:17:24.300Z,57.87
2023-02-24T08:20:12.759Z,57.48
2023-02-24T08:22:44.565Z,57.43
2023-02-24T08:25:19.229Z,56.95
2023-02-24T08:28:07.519Z,57.13
2023-02-24T08:30:40.453Z,56.93
2023-02-24T08:33:10.366Z,56.48
2023-02-24T08:35:44.750Z,56.44
2023-02-24T08:38:19.282Z,56.10
2023-02-24T08:40:54.433Z,56.07
2023-02-24T08:43:30.680Z,55.70
2023-02-24T08:46:13.206Z,55.57
2023-02-24T08:48:46.783Z,55.18
2023-02-24T08:51:35.055Z,54.92
2023-02-24T08:54:11.669Z,55.05
2023-02-24T08:56:44.097Z,54.79
2023-02-24T08:59:30.888Z,54.78
2023-02-24T09:02:17.868Z,54.62
2023-02-24T09:04:49.732Z,54.49
2023-02-24T09:07:40.859Z,54.33
2023-02-24T09:10:18.503Z,54.39
2023-02-24T09:12:45.642Z,54.65
2023-02-24T09:15:17.004Z,54.18
2023-02-24T09:17:47.245Z,54.25
2023-02-24T09:20:43.660Z,53.94
2023-02-24T09:23:20.512Z,53.67
2023-02-24T09:25:50.997Z,53.58
2023-02-24T09:28:20.587Z,53.40
2023-02-24T09:30:59.093Z,53.48
2023-02-24T09:33:30.054Z,53.37
2023-02-24T09:36:09.828Z,53.32
2023-02-24T09:39:01.481Z,53.17
2023-02-24T09:41:56.474Z,52.93
2023-02-24T09:44:33.411Z,52.64
2023-02-24T09:47:09.371Z,52.20
2023-02-24T09:49:46.936Z,52.08
2023-02-24T09:52:17.699Z,51.74
2023-02-24T09:55:13.874Z,51.73
2023-02-24T09:58:12.377Z,51.89
2023-02-24T10:00:44.628Z,51.84
2023-02-24T10:03:42.722Z,51.60
2023-02-24T10:06:20.840Z,51.44
2023-02-24T10:09:12.689Z,51.83
2023-02-24T10:11:55.826Z,51.57
2023-02-24T10:15:14.785Z,51.81
2023-02-24T10:17:47.260Z,52.01
2023-02-24T10:20:31.414Z,52.04
2023-02-24T10:23:01.702Z,52.01
2023-02-24T10:25:36.549Z,51.88
2023-02-24T10:28:15.023Z,52.02
2023-02-24T10:30:47.639Z,51.91
2023-02-24T10:33:18.793Z,51.63
2023-02-24T10:35:45.531Z,51.78
2023-02-24T10:38:12.332Z,51.78
2023-02-24T10:40:57.121Z,51.71
2023-02-24T10:43:31.870Z,51.69
2023-02-24T10:46:08.416Z,51.90
2023-02-24T10:48:42.614Z,51.87
2023-02-24T10:51:20.754Z,51.81
2023-02-24T10:54:08.853Z,51.79
2023-02-24T10:56:44.900Z,52.05
2023-02-24T10:59:25.071Z,52.02
2023-02-24T11:01:59.114Z,51.82
2023-02-24T11:05:02.556Z,51.97
2023-02-24T11:07:53.744Z,51.98
2023-02-24T11:10:32.637Z,52.01
2023-02-24T11:13:19.608Z,52.03
2023-02-24T11:16:11.966Z,51.93
2023-02-24T11:18:39.964Z,52.05
2023-02-24T11:21:11.108Z,52.12
2023-02-24T11:23:45.730Z,52.25
2023-02-24T11:26:31.931Z,52.06
2023-02-24T11:29:32.702Z,52.33
2023-02-24T11:32:22.378Z,52.36
2023-02-24T11:35:06.589Z,52.50
2023-02-24T11:37:56.714Z,52.75
2023-02-24T11:40:32.465Z,52.65
2023-02-24T11:43:04.852Z,52.47
2023-02-24T11:45:49.610Z,52.59
2023-02-24T11:48:21.784Z,52.55
2023-02-24T11:50:58.224Z,52.42
2023-02-24T11:53:30.517Z,52.34
2023-02-24T11:56:19.637Z,52.40
2023-02-24T11:58:55.968Z,52.46
2023-02-24T12:01:35.833Z,52.63
2023-02-24T12:04:19.345Z,52.77
2023-02-24T12:07:02.244Z,52.76
2023-02-24T12:09:34.513Z,52.67
2023-02-24T12:12:10.216Z,52.94
2023-02-24T12:14:47.945Z,53.14
2023-02-24T12:17:26.426Z,53.07
2023-02-24T12:20:14.213Z,53.14
2023-02-24T12:22:51.016Z,52.96
2023-02-24T12:25:25.299Z,52.91
2023-02-24T12:28:11.568Z,52.98
2023-02-24T12:31:08.947Z,53.06
2023-02-24T12:34:03.054Z,53.17
2023-02-24T12:36:39.645Z,53.13
2023-02-24T12:39:30.701Z,53.32
2023-02-24T12:42:02.995Z,53.23
2023-02-24T12:44:43.510Z,53.32
2023-02-24T12:47:15.558Z,53.56
2023-02-24T12:49:58.700Z,53.55
2023-02-24T12:53:00.414Z,53.87
2023-02-24T12:55:37.115Z,54.07
2023-02-24T12:58:28.210Z,54.22
2023-02-24T13:01:06.714Z,54.56
2023-02-24T13:04:00.783Z,54.53
2023-02-24T13:06:48.815Z,54.84
2023-02-24T13:09:27.690Z,54.92
2023-02-24T13:12:07.213Z,54.95
2023-02-24T13:14:36.981Z,55.14
2023-02-24T13:17:27.130Z,55.21
2023-02-24T13:19:55.622Z,55.28
2023-02-24T13:22:25.023Z,55.18
2023-02-24T13:24:54.828Z,55.40
2023-02-24T13:27:24.703Z,55.41
2023-02-24T13:29:55.142Z,55.53
2023-02-24T13:32:36.372Z,55.46
2023-02-24T13:35:15.090Z,55.53
2023-02-24T13:37:44.405Z,55.66
2023-02-24T13:40:23.783Z,55.59
2023-02-24T13:42:56.617Z,55.73
2023-02-24T13:45:25.622Z,55.77
2023-02-24T13:48:17.840Z,56.05
2023-02-24T13:50:59.241Z,56.03
2023-02-24T13:53:31.851Z,56.14
2023-02-24T13:56:17.533Z,56.16
2023-02-24T13:58:53.158Z,56.25
2023-02-24T14:01:21.751Z,56.20
2023-02-24T14:04:22.778Z,56.10
2023-02-24T14:06:53.979Z,56.18
2023-02-24T14:09:37.853Z,56.09
2023-02-24T14:12:13.015Z,56.09
2023-02-24T14:14:42.928Z,56.10
2023-02-24T14:17:31.380Z,56.24
2023-02-24T14:20:10.156Z,56.34
2023-02-24T14:22:53.206Z,56.24
2023-02-24T14:25:22.256Z,56.26
2023-02-24T14:27:52.189Z,56.45
2023-02-24T14:30:41.371Z,56.33
2023-02-24T14:33:21.312Z,56.34
2023-02-24T14:35:48.754Z,56.36
2023-02-24T14:38:39.851Z,56.45
2023-02-24T14:41:24.879Z,56.51
2023-02-24T14:43:52.652Z,56.70
2023-02-24T14:46:20.845Z,56.62
2023-02-24T14:48:53.978Z,56.68
2023-02-24T14:51:29.210Z,56.74
2023-02-24T14:54:03.654Z,56.87
2023-02-24T14:56:34.309Z,56.78
2023-02-24T14:59:03.122Z,56.72
2023-02-24T15:01:38.934Z,56.82
2023-02-24T15:04:24.474Z,56.95
2023-02-24T15:06:51.534Z,56.92
2023-02-24T15:09:33.167Z,57.03
2023-02-24T15:12:10.994Z,57.08
2023-02-24T15:14:37.988Z,57.35
2023-02-24T15:17:14.763Z,57.37
2023-02-24T15:19:54.446Z,57.48
2023-02-24T15:22:39.555Z,57.50
2023-02-24T15:25:41.823Z,57.75
2023-02-24T15:28:35.560Z,57.76
2023-02-24T15:31:04.825Z,57.86
2023-02-24T15:33:41.449Z,58.09
2023-02-24T15:36:37.433Z,58.15
2023-02-24T15:39:08.009Z,58.25
2023-02-24T15:41:42.951Z,58.39
2023-02-24T15:45:11.444Z,58.42
2023-02-24T15:47:45.798Z,58.55
2023-02-24T15:50:13.515Z,58.56
2023-02-24T15:52:41.061Z,58.84
2023-02-24T15:55:15.455Z,58.86
2023-02-24T15:57:42.524Z,58.96
2023-02-24T16:00:13.606Z,59.14
2023-02-24T16:02:41.346Z,59.23
2023-02-24T16:05:12.580Z,59.18
2023-02-24T16:07:39.810Z,59.18
2023-02-24T16:10:07.664Z,59.30
2023-02-24T16:12:39.193Z,59.27
2023-02-24T16:15:11.695Z,59.13
2023-02-24T16:17:40.803Z,59.59
2023-02-24T16:20:12.705Z,59.57
2023-02-24T16:22:39.328Z,59.61
2023-02-24T16:25:07.169Z,59.60
2023-02-24T16:27:34.610Z,59.68
2023-02-24T16:30:01.352Z,59.72
2023-02-24T16:32:28.243Z,59.85
2023-02-24T16:34:55.167Z,60.06
2023-02-24T16:37:28.634Z,60.23
2023-02-24T16:39:55.795Z,60.45
2023-02-24T16:42:22.750Z,60.27
2023-02-24T16:44:50.437Z,60.67
2023-02-24T16:47:21.640Z,60.67
2023-02-24T16:49:48.917Z,60.72
2023-02-24T16:52:19.327Z,60.88
2023-02-24T16:54:46.453Z,61.09
2023-02-24T16:57:13.442Z,61.22
2023-02-24T16:59:40.082Z,61.20
2023-02-24T17:02:07.117Z,61.29
2023-02-24T17:04:35.319Z,61.51
2023-02-24T17:07:01.936Z,61.39
2023-02-24T17:09:30.792Z,61.53
2023-02-24T17:11:57.456Z,61.61
2023-02-24T17:14:24.999Z,61.82
2023-02-24T17:16:51.889Z,61.79
2023-02-24T17:19:19.484Z,62.00
2023-02-24T17:21:46.282Z,61.99
2023-02-24T17:24:16.347Z,62.30
2023-02-24T17:26:43.366Z,62.35
2023-02-24T17:29:11.365Z,62.61
2023-02-24T17:31:38.183Z,62.52
2023-02-24T17:34:06.355Z,62.68
2023-02-24T17:36:33.606Z,62.68
2023-02-24T17:39:01.254Z,62.78
2023-02-24T17:41:28.110Z,62.80
2023-02-24T17:43:54.977Z,62.79
2023-02-24T17:46:22.373Z,62.88
2023-02-24T17:48:49.523Z,62.85
2023-02-24T17:51:17.276Z,62.73
2023-02-24T17:53:44.777Z,62.97
2023-02-24T17:56:12.318Z,63.05
2023-02-24T17:58:39.077Z,63.04
2023-02-24T18:01:06.805Z,63.13
2023-02-24T18:03:35.009Z,63.29
2023-02-24T18:06:05.730Z,63.38
2023-02-24T18:08:34.045Z,63.27
2023-02-24T18:11:01.072Z,63.45
2023-02-24T18:13:29.217Z,63.52
2023-02-24T18:15:56.098Z,63.40
2023-02-24T18:18:23.867Z,63.55
2023-02-24T18:20:50.568Z,63.73
2023-02-24T18:23:17.576Z,63.80
2023-02-24T18:25:44.949Z,63.79
2023-02-24T18:28:11.639Z,63.95
2023-02-24T18:30:41.393Z,63.87
2023-02-24T18:33:08.575Z,63.80
2023-02-24T18:35:37.658Z,63.99
2023-02-24T18:38:05.513Z,64.08
2023-02-24T18:40:32.420Z,64.03
2023-02-24T18:43:01.243Z,64.11
2023-02-24T18:45:30.830Z,64.18
2023-02-24T18:48:01.972Z,64.20
2023-02-24T18:50:28.555Z,64.31
2023-02-24T18:52:55.715Z,64.62
2023-02-24T18:55:22.452Z,64.55
2023-02-24T18:57:49.100Z,64.81
2023-02-24T19:00:16.395Z,65.06
2023-02-24T19:02:43.201Z,64.98
2023-02-24T19:05:10.334Z,65.15
2023-02-24T19:07:36.941Z,65.37
2023-02-24T19:10:05.353Z,65.50
2023-02-24T19:12:31.968Z,65.65
2023-02-24T19:14:58.690Z,65.77
2023-02-24T19:17:26.444Z,65.75
2023-02-24T19:19:54.066Z,65.86
2023-02-24T19:22:20.739Z,65.79
2023-02-24T19:24:47.676Z,65.90
2023-02-24T19:27:14.705Z,66.00
2023-02-24T19:29:41.414Z,66.10
2023-02-24T19:32:08.562Z,66.21
2023-02-24T19:34:36.848Z,66.17
2023-02-24T19:37:03.441Z,66.26
2023-02-24T19:39:30.929Z,66.30
2023-02-24T19:41:57.803Z,66.49
2023-02-24T19:44:24.570Z,66.56
2023-02-24T19:46:51.698Z,66.82
2023-02-24T19:49:18.308Z,66.88
2023-02-24T19:51:48.046Z,66.91
2023-02-24T19:54:16.477Z,66.73
2023-02-24T19:56:44.039Z,66.85
2023-02-24T19:59:11.496Z,66.78
2023-02-24T20:01:38.605Z,66.78
2023-02-24T20:04:06.161Z,66.96
2023-02-24T20:06:32.967Z,67.00
2023-02-24T20:09:00.233Z,66.88
2023-02-24T20:11:28.798Z,66.95
2023-02-24T20:13:55.963Z,66.88
2023-02-24T20:16:27.319Z,66.96
2023-02-24T20:18:57.172Z,66.91
2023-02-24T20:21:24.621Z,67.01
2023-02-24T20:23:51.585Z,66.94
2023-02-24T20:26:18.293Z,66.98
2023-02-24T20:28:46.616Z,67.04
2023-02-24T20:31:18.766Z,66.98
2023-02-24T20:33:47.754Z,67.14
2023-02-24T20:36:20.612Z,67.17
2023-02-24T20:38:47.981Z,67.13
2023-02-24T20:41:15.742Z,67.14
2023-02-24T20:43:42.548Z,67.19
2023-02-24T20:46:13.433Z,67.33
2023-02-24T20:48:40.185Z,67.55
2023-02-24T20:51:07.806Z,67.41
2023-02-24T20:53:47.832Z,67.57
2023-02-24T20:56:22.512Z,67.67
2023-02-24T20:58:50.766Z,67.63
2023-02-24T21:01:17.799Z,67.56
2023-02-24T21:03:45.209Z,67.63
2023-02-24T21:06:13.427Z,67.83
2023-02-24T21:08:40.091Z,67.85
2023-02-24T21:11:10.999Z,67.67
2023-02-24T21:13:46.010Z,67.95
2023-02-24T21:16:14.739Z,67.94
2023-02-24T21:18:43.401Z,68.08
2023-02-24T21:21:10.950Z,68.30
2023-02-24T21:23:39.617Z,68.18
2023-02-24T21:26:07.073Z,68.23
2023-02-24T21:28:34.188Z,68.49
2023-02-24T21:31:01.823Z,68.41
2023-02-24T21:33:28.744Z,68.85
2023-02-24T21:35:59.575Z,68.82
2023-02-24T21:38:26.558Z,68.99
2023-02-24T21:40:53.476Z,69.23
2023-02-24T21:43:21.782Z,69.14
2023-02-24T21:45:48.581Z,69.36
2023-02-24T21:48:15.485Z,69.32
2023-02-24T21:50:42.605Z,69.34
2023-02-24T21:53:09.410Z,69.43
2023-02-24T21:55:38.647Z,69.60
2023-02-24T21:58:05.763Z,69.68
2023-02-24T22:00:32.935Z,69.66
2023-02-24T22:02:59.679Z,69.61
2023-02-24T22:05:26.944Z,69.77
2023-02-24T22:07:53.673Z,69.95
2023-02-24T22:10:23.877Z,69.99
2023-02-24T22:12:50.949Z,69.88
2023-02-24T22:15:18.008Z,69.97
2023-02-24T22:17:44.661Z,69.93
2023-02-24T22:20:13.516Z,69.99
2023-02-24T22:22:41.962Z,69.86
2023-02-24T22:25:14.251Z,70.02
2023-02-24T22:27:41.087Z,70.21
2023-02-24T22:30:08.393Z,70.19
2023-02-24T22:32:35.720Z,70.27
2023-02-24T22:35:02.352Z,70.26
2023-02-24T22:37:29.808Z,70.34
2023-02-24T22:39:56.579Z,70.42
2023-02-24T22:42:23.401Z,70.41
2023-02-24T22:44:50.028Z,70.60
2023-02-24T22:47:17.060Z,70.62
2023-02-24T22:49:43.912Z,70.49
2023-02-24T22:52:11.766Z,70.68
2023-02-24T22:54:38.395Z,70.97
2023-02-24T22:57:05.234Z,70.80
2023-02-24T22:59:33.103Z,70.67
2023-02-24T23:01:59.820Z,71.09
2023-02-24T23:04:29.264Z,71.04
2023-02-24T23:06:57.370Z,71.04
2023-02-24T23:09:24.277Z,71.00
2023-02-24T23:11:51.137Z,71.04
2023-02-24T23:14:18.020Z,71.13
2023-02-24T23:16:47.333Z,71.09
2023-02-24T23:19:17.838Z,70.98
2023-02-24T23:21:47.384Z,71.13
2023-02-24T23:24:14.823Z,71.28
2023-02-24T23:26:57.757Z,71.30
2023-02-24T23:29:26.623Z,71.46
2023-02-24T23:31:53.804Z,71.51
2023-02-24T23:34:20.945Z,71.64
2023-02-24T23:36:48.085Z,71.76
2023-02-24T23:39:20.404Z,71.97
2023-02-24T23:41:47.696Z,71.84
2023-02-24T23:44:14.434Z,71.95
2023-02-24T23:46:44.322Z,72.36
2023-02-24T23:49:11.759Z,72.31
2023-02-24T23:51:48.056Z,72.29
2023-02-24T23:54:15.883Z,72.53
2023-02-24T23:56:42.684Z,72.63
2023-02-24T23:59:09.536Z,72.69
